Terminal Aerodrome Forecast
Issued by NWS

Home | Current Version | Previous Version | Text Only | Print | Product List | Glossary Off
Versions: 1 2 3 4 5 6 7 8 9 10 11 12 13 14 15 16 17 18 19 20 21 22 23

825
FTUS43 KFGF 231335 AAA
TAFBJI
TAF AMD
KBJI 231335Z 2314/2412 36005KT P6SM BKN015
     FM231500 36006KT P6SM SCT015
     FM231900 VRB03KT P6SM BKN025
     FM240200 VRB03KT P6SM BKN015
     FM241100 28004KT P6SM BKN008=

USA.gov is the U.S. government's official web portal to all federal, state and local government web resources and services.